Time;durP1;ratioP1;P1;durP2;ratioP2;P2;SDS_P1;SDS_P2;PMS_P1;PMS_P2;Temp;Humidity;BMP_temperature;BMP_pressure;BME280_temperature;BME280_humidity;BME280_pressure;Samples;Min_cycle;Max_cycle;Signal;HPM_P1;HPM_P2
2021/06/26 00:00:17;;;;;;;16.40;9.32;;;15.70;99.90;;;;;;5050745;28;20028;-60
2021/06/26 00:02:42;;;;;;;13.68;8.95;;;15.80;99.90;;;;;;5051000;28;20060;-60
2021/06/26 00:05:10;;;;;;;14.20;9.23;;;15.70;99.90;;;;;;5051487;28;20060;-60
2021/06/26 00:07:36;;;;;;;11.52;8.85;;;15.70;99.90;;;;;;5053420;28;20025;-60
2021/06/26 00:10:02;;;;;;;13.45;9.43;;;15.70;99.90;;;;;;5036295;28;20021;-60
2021/06/26 00:12:28;;;;;;;14.55;9.35;;;15.70;99.90;;;;;;5054492;28;20052;-60
2021/06/26 00:14:54;;;;;;;11.70;9.13;;;15.80;99.90;;;;;;5054652;28;20017;-60
2021/06/26 00:17:19;;;;;;;13.95;9.75;;;15.90;99.90;;;;;;5054352;28;20056;-60
2021/06/26 00:19:45;;;;;;;14.60;9.98;;;15.90;99.90;;;;;;5053843;28;20025;-60
2021/06/26 00:22:10;;;;;;;13.32;10.05;;;16.00;99.90;;;;;;5034546;28;20032;-60
2021/06/26 00:24:36;;;;;;;11.18;8.80;;;16.10;99.90;;;;;;5051804;28;20398;-60
2021/06/26 00:27:02;;;;;;;14.15;9.57;;;16.00;99.90;;;;;;5051186;28;20493;-62
2021/06/26 00:29:27;;;;;;;12.18;8.70;;;16.00;99.90;;;;;;5033616;28;20029;-61
2021/06/26 00:31:53;;;;;;;11.77;8.55;;;15.90;99.90;;;;;;5051816;28;20325;-61
2021/06/26 00:34:19;;;;;;;10.88;8.55;;;15.90;99.90;;;;;;5052584;28;20036;-60
2021/06/26 00:36:45;;;;;;;13.02;8.15;;;15.90;99.90;;;;;;5052849;28;20067;-60
2021/06/26 00:39:11;;;;;;;11.30;8.35;;;15.90;99.90;;;;;;5053178;28;20056;-60
2021/06/26 00:41:37;;;;;;;10.82;7.70;;;15.90;99.90;;;;;;5054504;28;20032;-59
2021/06/26 00:44:07;;;;;;;8.32;7.22;;;15.90;99.90;;;;;;5056367;28;20024;-60
2021/06/26 00:46:33;;;;;;;12.38;7.00;;;15.90;99.90;;;;;;5056651;28;20044;-60
2021/06/26 00:48:59;;;;;;;9.77;6.75;;;15.90;99.90;;;;;;5056801;28;20021;-60
2021/06/26 00:51:25;;;;;;;9.85;7.45;;;15.90;99.90;;;;;;5054553;28;20052;-60
2021/06/26 00:53:50;;;;;;;8.82;7.10;;;15.90;99.90;;;;;;5035988;28;20112;-64
2021/06/26 00:56:17;;;;;;;12.45;7.40;;;15.90;99.90;;;;;;5054628;28;20071;-63
2021/06/26 00:58:43;;;;;;;8.38;7.00;;;15.80;99.90;;;;;;5035973;28;20508;-63
2021/06/26 01:01:11;;;;;;;10.00;6.80;;;15.70;99.90;;;;;;5053860;28;20136;-63
2021/06/26 01:03:37;;;;;;;8.05;6.72;;;15.80;99.90;;;;;;5054210;28;20366;-62
2021/06/26 01:06:03;;;;;;;8.85;7.13;;;15.70;99.90;;;;;;5053710;28;20025;-64
2021/06/26 01:08:28;;;;;;;8.13;6.55;;;15.70;99.90;;;;;;5035726;28;20025;-64
2021/06/26 01:10:54;;;;;;;9.13;8.10;;;15.80;99.90;;;;;;5053713;28;20117;-64
2021/06/26 01:13:20;;;;;;;8.80;7.30;;;15.80;99.90;;;;;;5053809;28;20028;-64
2021/06/26 01:15:45;;;;;;;10.60;7.03;;;15.80;99.90;;;;;;5035614;28;20036;-63
2021/06/26 01:18:11;;;;;;;10.70;6.60;;;15.70;99.90;;;;;;5053638;28;20029;-64
2021/06/26 01:20:36;;;;;;;9.73;6.82;;;15.60;99.90;;;;;;5053678;28;20029;-63
2021/06/26 01:23:02;;;;;;;10.35;7.32;;;15.70;99.90;;;;;;5053460;28;20102;-64
2021/06/26 01:25:30;;;;;;;10.32;7.18;;;15.70;99.90;;;;;;5035565;28;20365;-63
2021/06/26 01:27:58;;;;;;;7.57;6.75;;;15.80;99.90;;;;;;5035464;28;20032;-64
2021/06/26 01:30:34;;;;;;;8.10;7.15;;;15.70;99.90;;;;;;5035208;28;20036;-63
2021/06/26 01:33:01;;;;;;;9.10;7.65;;;15.60;99.90;;;;;;5053311;28;20017;-61
2021/06/26 01:35:27;;;;;;;11.45;7.28;;;15.60;99.90;;;;;;5053626;28;20043;-61
2021/06/26 01:37:53;;;;;;;10.32;8.50;;;15.60;99.90;;;;;;5053101;28;20049;-61
2021/06/26 01:40:21;;;;;;;9.82;8.43;;;15.70;99.90;;;;;;5053085;28;20065;-61
2021/06/26 01:42:48;;;;;;;11.35;9.02;;;15.70;99.90;;;;;;5034925;28;20529;-60
2021/06/26 01:45:16;;;;;;;11.77;8.75;;;15.80;99.90;;;;;;5053111;28;20428;-60
2021/06/26 01:47:49;;;;;;;11.55;8.80;;;15.80;99.90;;;;;;5052864;28;20131;-60
2021/06/26 01:50:16;;;;;;;11.65;8.85;;;15.80;99.90;;;;;;5052913;28;20110;-60
2021/06/26 01:52:46;;;;;;;11.85;7.90;;;15.70;99.90;;;;;;5033749;28;20032;-60
2021/06/26 01:55:12;;;;;;;9.13;7.93;;;15.80;99.90;;;;;;5035037;28;20544;-60
2021/06/26 01:57:42;;;;;;;8.23;7.32;;;15.70;99.90;;;;;;5052794;28;20039;-60
2021/06/26 02:00:09;;;;;;;10.35;7.63;;;15.60;99.90;;;;;;5052652;28;20021;-60
2021/06/26 02:02:35;;;;;;;10.20;7.97;;;15.60;99.90;;;;;;5052596;28;20021;-60
2021/06/26 02:05:00;;;;;;;11.10;8.90;;;15.60;99.90;;;;;;5035153;28;20083;-60
2021/06/26 02:07:26;;;;;;;12.95;8.27;;;15.60;99.90;;;;;;5053761;28;20021;-60
2021/06/26 02:09:51;;;;;;;11.07;8.70;;;15.70;99.90;;;;;;5053971;28;20029;-60
2021/06/26 02:12:17;;;;;;;12.90;10.27;;;15.80;99.90;;;;;;5053441;28;20103;-60
2021/06/26 02:14:43;;;;;;;15.05;9.05;;;15.90;99.90;;;;;;5036329;28;20117;-60
2021/06/26 02:17:08;;;;;;;11.48;9.20;;;15.90;99.90;;;;;;5053858;28;20017;-60
2021/06/26 02:19:34;;;;;;;12.35;9.07;;;15.90;99.90;;;;;;5052693;28;20021;-60
2021/06/26 02:22:00;;;;;;;13.35;9.23;;;15.90;99.90;;;;;;5052874;28;20029;-60
2021/06/26 02:24:25;;;;;;;17.25;10.27;;;16.00;99.90;;;;;;5052466;28;20061;-60
2021/06/26 02:26:51;;;;;;;15.75;9.73;;;16.00;99.90;;;;;;5052645;28;20115;-60
2021/06/26 02:29:16;;;;;;;12.85;9.27;;;16.00;99.90;;;;;;5034443;28;20392;-60
2021/06/26 02:31:42;;;;;;;13.00;9.32;;;16.10;99.90;;;;;;5034107;28;20078;-60
2021/06/26 02:34:12;;;;;;;13.85;10.23;;;16.10;99.90;;;;;;5052141;28;20033;-60
2021/06/26 02:36:38;;;;;;;19.17;10.80;;;16.30;99.90;;;;;;5052196;28;20025;-60
2021/06/26 02:39:04;;;;;;;18.67;11.23;;;16.40;99.90;;;;;;5051835;28;20055;-60
2021/06/26 02:41:29;;;;;;;17.00;11.43;;;16.60;99.90;;;;;;5051876;28;20025;-60
2021/06/26 02:43:55;;;;;;;22.63;12.48;;;16.70;99.90;;;;;;5052406;28;20025;-60
2021/06/26 02:46:21;;;;;;;18.02;12.38;;;16.80;99.90;;;;;;5033910;28;20021;-60
2021/06/26 02:48:46;;;;;;;20.77;12.73;;;16.80;99.90;;;;;;5051990;28;20104;-60
2021/06/26 02:51:12;;;;;;;21.25;12.43;;;16.70;99.90;;;;;;5034003;28;20522;-60
2021/06/26 02:53:38;;;;;;;23.10;12.93;;;16.80;99.90;;;;;;5035169;28;20026;-61
2021/06/26 02:56:04;;;;;;;19.42;12.43;;;16.80;99.90;;;;;;5052904;28;20470;-60
2021/06/26 02:58:30;;;;;;;17.80;11.85;;;16.70;99.90;;;;;;5053308;28;20533;-60
2021/06/26 03:00:55;;;;;;;22.35;13.18;;;16.60;99.90;;;;;;5052811;28;20507;-60
2021/06/26 03:03:21;;;;;;;21.00;12.63;;;16.60;99.90;;;;;;5034096;28;20029;-60
2021/06/26 03:05:46;;;;;;;18.38;11.68;;;16.50;99.90;;;;;;5052998;28;20099;-60
2021/06/26 03:08:12;;;;;;;19.27;11.98;;;16.40;99.90;;;;;;5053338;28;20082;-60
2021/06/26 03:10:38;;;;;;;19.65;12.55;;;16.50;99.90;;;;;;5053316;28;20470;-60
2021/06/26 03:13:03;;;;;;;16.55;11.00;;;16.50;99.90;;;;;;5053404;28;20021;-60
2021/06/26 03:15:29;;;;;;;14.70;10.73;;;16.40;99.90;;;;;;5053045;28;20471;-60
2021/06/26 03:17:55;;;;;;;14.73;11.25;;;16.30;99.90;;;;;;5052278;28;20028;-60
2021/06/26 03:20:20;;;;;;;18.25;11.48;;;16.40;99.90;;;;;;5033787;28;20028;-60
2021/06/26 03:22:46;;;;;;;15.50;10.57;;;16.30;99.90;;;;;;5052110;28;20040;-64
2021/06/26 03:25:13;;;;;;;17.10;11.73;;;16.40;99.90;;;;;;5051339;28;20057;-65
2021/06/26 03:27:40;;;;;;;17.05;12.27;;;16.40;99.90;;;;;;5033042;28;20036;-63
2021/06/26 03:30:06;;;;;;;19.45;12.40;;;16.60;99.90;;;;;;5051004;28;20397;-63
2021/06/26 03:32:32;;;;;;;18.05;12.10;;;16.70;99.90;;;;;;5051050;28;20025;-61
2021/06/26 03:34:58;;;;;;;18.20;12.00;;;16.70;99.90;;;;;;5050977;28;20378;-61
2021/06/26 03:37:23;;;;;;;17.98;11.60;;;16.50;99.90;;;;;;5051191;28;20033;-61
2021/06/26 03:39:49;;;;;;;14.48;10.95;;;16.40;99.90;;;;;;5033598;28;20102;-60
2021/06/26 03:42:15;;;;;;;16.65;10.93;;;16.30;99.90;;;;;;5050913;28;20039;-59
2021/06/26 03:44:40;;;;;;;15.85;10.13;;;16.30;99.90;;;;;;5051049;28;20033;-59
2021/06/26 03:47:06;;;;;;;16.08;10.48;;;16.40;99.90;;;;;;5050736;28;20381;-59
2021/06/26 03:49:35;;;;;;;18.10;10.95;;;16.60;99.90;;;;;;5051381;28;20033;-59
2021/06/26 03:52:01;;;;;;;12.82;9.80;;;16.60;99.90;;;;;;5050675;28;20534;-59
2021/06/26 03:54:27;;;;;;;11.32;9.05;;;16.40;99.90;;;;;;5050803;28;20100;-59
2021/06/26 03:56:52;;;;;;;14.68;10.50;;;16.20;99.90;;;;;;5050639;28;20033;-59
2021/06/26 03:59:18;;;;;;;15.38;10.60;;;16.30;99.90;;;;;;5050739;28;20036;-59
2021/06/26 04:01:44;;;;;;;16.10;10.43;;;16.30;99.90;;;;;;5050526;28;20074;-59
2021/06/26 04:04:09;;;;;;;12.48;8.88;;;16.30;99.90;;;;;;5050780;28;20048;-63
2021/06/26 04:06:35;;;;;;;15.20;9.55;;;16.20;99.90;;;;;;5032622;28;20060;-64
2021/06/26 04:09:01;;;;;;;12.77;9.00;;;16.10;99.90;;;;;;5050709;28;20099;-62
2021/06/26 04:11:26;;;;;;;11.25;8.95;;;16.10;99.90;;;;;;5050802;28;20025;-63
2021/06/26 04:13:52;;;;;;;12.40;9.65;;;16.20;99.90;;;;;;5050501;28;20132;-63
2021/06/26 04:16:17;;;;;;;11.25;8.88;;;16.30;99.90;;;;;;5051999;28;20021;-62
2021/06/26 04:18:43;;;;;;;11.63;8.82;;;16.30;99.90;;;;;;5054684;28;20065;-61
2021/06/26 04:21:09;;;;;;;10.27;8.52;;;16.20;99.90;;;;;;5036577;28;20035;-60
2021/06/26 04:23:34;;;;;;;14.23;8.25;;;16.20;99.90;;;;;;5054722;28;20503;-60
2021/06/26 04:26:00;;;;;;;11.88;8.38;;;16.30;99.90;;;;;;5054448;28;20036;-60
2021/06/26 04:28:25;;;;;;;12.95;9.52;;;16.60;99.90;;;;;;5054513;28;20029;-60
2021/06/26 04:30:51;;;;;;;13.35;8.85;;;16.80;99.90;;;;;;5054228;28;20027;-60
2021/06/26 04:33:17;;;;;;;10.00;7.78;;;16.60;99.90;;;;;;5054453;28;20512;-60
2021/06/26 04:35:42;;;;;;;13.32;8.88;;;16.60;99.90;;;;;;5054250;28;20091;-60
2021/06/26 04:38:08;;;;;;;13.10;9.52;;;16.80;99.90;;;;;;5054091;28;20025;-60
2021/06/26 04:40:34;;;;;;;13.20;8.90;;;16.70;99.90;;;;;;5054267;28;20116;-61
2021/06/26 04:43:00;;;;;;;13.40;9.00;;;16.80;99.90;;;;;;5054160;28;20021;-62
2021/06/26 04:45:25;;;;;;;13.00;8.57;;;16.70;99.90;;;;;;5054466;28;20107;-61
2021/06/26 04:47:51;;;;;;;14.27;9.95;;;16.90;99.90;;;;;;5054192;28;20029;-61
2021/06/26 04:50:17;;;;;;;12.68;8.63;;;16.90;99.90;;;;;;5053890;28;20032;-60
2021/06/26 04:52:44;;;;;;;10.30;8.27;;;16.70;99.90;;;;;;5054101;28;20025;-60
2021/06/26 04:55:11;;;;;;;10.30;7.50;;;16.50;99.90;;;;;;5054057;28;20033;-60
2021/06/26 04:57:37;;;;;;;10.13;7.78;;;16.50;99.90;;;;;;5053980;28;20029;-60
2021/06/26 05:00:06;;;;;;;8.07;6.03;;;16.60;99.90;;;;;;5053971;28;20083;-60
2021/06/26 05:02:31;;;;;;;8.23;6.30;;;16.60;99.90;;;;;;5050718;28;20472;-60
2021/06/26 05:04:57;;;;;;;7.88;6.70;;;16.50;99.90;;;;;;5053862;28;20025;-60
2021/06/26 05:07:23;;;;;;;7.82;6.75;;;16.60;99.90;;;;;;5053769;28;20040;-60
2021/06/26 05:09:48;;;;;;;7.53;6.07;;;16.60;99.90;;;;;;5053627;28;20032;-60
2021/06/26 05:12:14;;;;;;;7.90;6.05;;;16.50;99.90;;;;;;5053857;28;20112;-60
2021/06/26 05:14:39;;;;;;;7.07;6.32;;;16.50;99.90;;;;;;5053703;28;20025;-60
2021/06/26 05:17:05;;;;;;;8.00;6.50;;;16.60;99.90;;;;;;5053556;28;20100;-61
2021/06/26 05:19:31;;;;;;;8.85;7.10;;;16.70;99.90;;;;;;5035666;28;20017;-61
2021/06/26 05:21:56;;;;;;;8.07;6.57;;;16.80;99.90;;;;;;5053548;28;20035;-60
2021/06/26 05:24:22;;;;;;;7.65;6.25;;;16.60;99.90;;;;;;5035625;28;20029;-60
2021/06/26 05:26:47;;;;;;;7.70;6.35;;;16.50;99.90;;;;;;5053194;28;20040;-60
2021/06/26 05:29:13;;;;;;;6.47;5.78;;;16.50;99.90;;;;;;5053316;28;20490;-60
2021/06/26 05:31:38;;;;;;;6.50;5.05;;;16.40;99.90;;;;;;5053258;28;20025;-60
2021/06/26 05:34:04;;;;;;;6.28;5.50;;;16.40;99.90;;;;;;5053323;28;20044;-60
2021/06/26 05:36:30;;;;;;;6.65;5.65;;;16.50;99.90;;;;;;5053315;28;20025;-60
2021/06/26 05:38:55;;;;;;;6.22;5.63;;;16.50;99.90;;;;;;5052948;28;20059;-60
2021/06/26 05:41:21;;;;;;;6.32;5.72;;;16.50;99.90;;;;;;5035340;28;20039;-60
2021/06/26 05:43:47;;;;;;;7.28;6.05;;;16.40;99.90;;;;;;5035516;28;20025;-60
2021/06/26 05:46:12;;;;;;;6.93;5.57;;;16.40;99.90;;;;;;5053111;28;20029;-61
2021/06/26 05:48:38;;;;;;;6.63;5.93;;;16.50;99.90;;;;;;5052980;28;20029;-60
2021/06/26 05:51:04;;;;;;;7.22;5.75;;;16.60;99.90;;;;;;5052823;28;20044;-60
2021/06/26 05:53:30;;;;;;;6.10;5.50;;;16.70;99.90;;;;;;5053278;28;20032;-61
2021/06/26 05:56:01;;;;;;;5.68;5.10;;;16.70;99.90;;;;;;5052929;28;20017;-60
2021/06/26 05:58:33;;;;;;;7.15;5.68;;;16.90;99.90;;;;;;5052900;28;20021;-60
2021/06/26 06:01:00;;;;;;;6.07;5.57;;;16.90;99.90;;;;;;5052873;28;20078;-60
2021/06/26 06:03:25;;;;;;;7.05;5.75;;;16.70;99.90;;;;;;5052724;28;20036;-60
2021/06/26 06:05:51;;;;;;;5.82;5.25;;;16.60;99.90;;;;;;5052702;28;20469;-60
2021/06/26 06:08:21;;;;;;;5.95;5.45;;;16.50;99.90;;;;;;5052786;28;20033;-60
2021/06/26 06:10:47;;;;;;;6.75;5.68;;;16.60;99.90;;;;;;5052556;28;20398;-60
2021/06/26 06:13:18;;;;;;;7.22;6.22;;;16.70;99.90;;;;;;5052579;28;20017;-60
2021/06/26 06:15:45;;;;;;;6.97;6.07;;;16.70;99.90;;;;;;5052574;28;20029;-60
2021/06/26 06:18:13;;;;;;;7.45;5.43;;;16.70;99.90;;;;;;5034536;28;20066;-60
2021/06/26 06:20:39;;;;;;;6.32;5.72;;;16.80;99.90;;;;;;5052988;28;20075;-60
2021/06/26 06:23:05;;;;;;;6.72;5.00;;;16.80;99.90;;;;;;5054100;28;20385;-60
2021/06/26 06:25:32;;;;;;;5.50;5.00;;;16.80;99.90;;;;;;5055179;28;20051;-60
2021/06/26 06:27:58;;;;;;;5.40;4.90;;;16.80;99.90;;;;;;5055489;28;20025;-60
2021/06/26 06:30:24;;;;;;;4.72;4.32;;;16.70;99.90;;;;;;5055691;28;20100;-61
2021/06/26 06:32:50;;;;;;;4.65;3.70;;;16.70;99.90;;;;;;5054150;28;20063;-60
2021/06/26 06:35:16;;;;;;;4.13;3.83;;;16.80;99.90;;;;;;5053029;28;20033;-59
2021/06/26 06:37:42;;;;;;;4.00;3.50;;;16.70;99.90;;;;;;5052494;28;20112;-59
2021/06/26 06:40:11;;;;;;;3.60;3.30;;;16.70;99.90;;;;;;5053621;28;20441;-59
2021/06/26 06:42:37;;;;;;;3.15;2.85;;;16.60;99.90;;;;;;5054931;28;20036;-59
2021/06/26 06:45:04;;;;;;;3.67;3.38;;;16.70;99.90;;;;;;5054984;28;20037;-59
2021/06/26 06:47:30;;;;;;;3.40;3.10;;;16.80;99.90;;;;;;5054833;28;20051;-59
2021/06/26 06:49:56;;;;;;;4.97;3.30;;;16.90;99.90;;;;;;5052409;28;20021;-59
2021/06/26 06:52:21;;;;;;;3.75;3.45;;;17.00;99.90;;;;;;5052026;28;20086;-59
2021/06/26 06:54:47;;;;;;;3.75;3.00;;;17.00;99.90;;;;;;5052088;28;20107;-59
2021/06/26 06:57:13;;;;;;;3.55;3.25;;;17.00;99.90;;;;;;5052211;28;20025;-59
2021/06/26 06:59:38;;;;;;;3.60;3.30;;;17.00;99.90;;;;;;5052043;28;20024;-59
2021/06/26 07:02:04;;;;;;;4.05;3.42;;;17.10;99.90;;;;;;5033680;28;20060;-59
2021/06/26 07:04:30;;;;;;;3.20;2.90;;;17.20;99.90;;;;;;5051654;28;20021;-59
2021/06/26 07:06:55;;;;;;;2.53;2.33;;;17.30;99.90;;;;;;5051430;28;20358;-59
2021/06/26 07:09:21;;;;;;;3.05;2.58;;;17.20;99.90;;;;;;5051569;28;20024;-59
2021/06/26 07:11:47;;;;;;;3.10;2.63;;;17.20;99.90;;;;;;5051404;28;20025;-59
2021/06/26 07:14:12;;;;;;;3.60;3.22;;;17.20;99.90;;;;;;5051900;28;20086;-59
2021/06/26 07:16:38;;;;;;;3.60;3.30;;;17.30;99.90;;;;;;5051408;28;20033;-59
2021/06/26 07:19:03;;;;;;;3.13;2.70;;;17.50;99.90;;;;;;5051298;28;20021;-58
2021/06/26 07:21:31;;;;;;;3.22;2.60;;;17.60;99.90;;;;;;5051117;28;20528;-58
2021/06/26 07:23:56;;;;;;;3.47;3.20;;;17.60;99.90;;;;;;5051406;28;20093;-58
2021/06/26 07:26:22;;;;;;;3.17;2.67;;;17.70;99.90;;;;;;5051114;28;20100;-58
2021/06/26 07:28:47;;;;;;;5.40;5.00;;;17.50;99.90;;;;;;5051092;28;20074;-58
2021/06/26 07:31:14;;;;;;;5.00;3.63;;;17.50;99.90;;;;;;5050797;28;20029;-58
2021/06/26 07:33:40;;;;;;;4.45;3.25;;;17.40;99.90;;;;;;5051002;28;20398;-58
2021/06/26 07:36:06;;;;;;;5.45;3.50;;;17.40;99.90;;;;;;5051047;28;20108;-58
2021/06/26 07:38:31;;;;;;;3.97;3.58;;;17.50;99.90;;;;;;5050853;28;20116;-58
2021/06/26 07:40:57;;;;;;;4.00;3.67;;;17.70;99.90;;;;;;5051014;28;20502;-58
2021/06/26 07:43:24;;;;;;;3.10;2.80;;;17.90;99.90;;;;;;5051008;28;20029;-58
2021/06/26 07:45:50;;;;;;;2.42;2.22;;;17.80;99.90;;;;;;5050804;28;20028;-58
2021/06/26 07:48:16;;;;;;;6.20;2.33;;;17.60;99.90;;;;;;5050775;28;20033;-58
2021/06/26 07:50:41;;;;;;;2.83;2.15;;;17.40;99.90;;;;;;5049700;28;20390;-58
2021/06/26 07:53:07;;;;;;;2.75;2.40;;;17.40;99.90;;;;;;5050740;28;20024;-58
2021/06/26 07:55:34;;;;;;;2.78;2.40;;;17.50;99.90;;;;;;5050850;28;20029;-58
2021/06/26 07:57:59;;;;;;;2.40;2.20;;;17.50;99.90;;;;;;5050866;28;20021;-58
2021/06/26 08:00:25;;;;;;;2.90;2.70;;;17.50;99.90;;;;;;5050610;28;20025;-58
2021/06/26 08:02:51;;;;;;;3.85;2.80;;;17.40;99.90;;;;;;5051139;28;20025;-58
2021/06/26 08:05:16;;;;;;;2.85;2.38;;;17.50;99.90;;;;;;5050930;28;20033;-58
2021/06/26 08:07:42;;;;;;;2.47;2.20;;;17.60;99.90;;;;;;5050928;28;20476;-58
2021/06/26 08:10:08;;;;;;;2.45;2.25;;;17.60;99.90;;;;;;5032579;28;20021;-59
2021/06/26 08:12:34;;;;;;;2.97;2.78;;;17.70;99.90;;;;;;5050442;28;20025;-59
2021/06/26 08:15:01;;;;;;;3.40;3.05;;;17.80;99.90;;;;;;5050450;28;20478;-59
2021/06/26 08:17:27;;;;;;;3.20;2.67;;;18.00;99.90;;;;;;5050655;28;20020;-59
2021/06/26 08:19:52;;;;;;;2.85;2.65;;;18.10;99.90;;;;;;5032521;28;20021;-59
2021/06/26 08:22:18;;;;;;;2.85;1.98;;;18.00;99.90;;;;;;5050512;28;20482;-59
2021/06/26 08:24:44;;;;;;;2.50;2.00;;;17.90;99.90;;;;;;5050683;28;20056;-59
2021/06/26 08:27:10;;;;;;;2.47;2.28;;;17.90;99.90;;;;;;5050468;28;20377;-59
2021/06/26 08:29:35;;;;;;;2.03;1.83;;;17.80;99.90;;;;;;5032430;28;20072;-59
2021/06/26 08:32:02;;;;;;;2.88;2.38;;;17.80;99.90;;;;;;5050460;28;20368;-59
2021/06/26 08:34:27;;;;;;;2.03;1.73;;;17.70;99.90;;;;;;5032495;28;20108;-58
2021/06/26 08:36:53;;;;;;;2.13;1.88;;;17.70;99.90;;;;;;5050500;28;20111;-58
2021/06/26 08:39:20;;;;;;;2.45;1.27;;;17.90;99.90;;;;;;5050136;28;20067;-58
2021/06/26 08:41:48;;;;;;;1.50;1.40;;;18.20;99.90;;;;;;5050195;28;20024;-58
2021/06/26 08:44:14;;;;;;;1.38;1.27;;;18.30;99.90;;;;;;5050508;28;20028;-58
2021/06/26 08:46:45;;;;;;;3.25;1.23;;;18.50;99.90;;;;;;5050063;28;20079;-59
2021/06/26 08:49:11;;;;;;;1.95;1.35;;;18.30;99.90;;;;;;5050070;28;20025;-59
2021/06/26 08:51:37;;;;;;;2.38;1.35;;;18.30;99.90;;;;;;5050314;28;20083;-59
2021/06/26 08:54:03;;;;;;;3.15;1.33;;;18.50;99.90;;;;;;5032232;28;20025;-59
2021/06/26 08:56:29;;;;;;;4.30;1.40;;;18.50;99.90;;;;;;5050063;28;20382;-59
2021/06/26 08:58:55;;;;;;;1.60;1.50;;;18.60;99.90;;;;;;5049914;28;20021;-59
2021/06/26 09:01:20;;;;;;;5.28;1.60;;;18.80;99.90;;;;;;5032180;28;20173;-59
2021/06/26 09:03:46;;;;;;;1.70;1.38;;;18.90;99.90;;;;;;5053734;28;20393;-59
2021/06/26 09:06:11;;;;;;;1.42;1.25;;;19.00;99.90;;;;;;5053782;28;20021;-59
2021/06/26 09:08:49;;;;;;;1.95;1.27;;;19.00;99.90;;;;;;5053823;28;20017;-59
2021/06/26 09:11:19;;;;;;;1.60;1.20;;;18.80;99.90;;;;;;5053569;28;20025;-59
2021/06/26 09:13:45;;;;;;;4.28;1.42;;;18.70;99.90;;;;;;5054194;28;20021;-60
2021/06/26 09:16:12;;;;;;;4.63;1.90;;;18.60;99.90;;;;;;5053577;28;20028;-59
2021/06/26 09:18:45;;;;;;;7.57;2.63;;;18.60;99.90;;;;;;5053539;28;20049;-59
2021/06/26 09:21:17;;;;;;;;;;;18.70;99.90;;;;;;5054126;28;20040;-59
2021/06/26 09:23:43;;;;;;;5.43;1.40;;;18.70;99.90;;;;;;5053515;28;19978;-59
2021/06/26 09:26:11;;;;;;;4.70;1.48;;;18.70;99.90;;;;;;5035532;28;20052;-59
2021/06/26 09:28:38;;;;;;;6.28;1.90;;;18.90;99.90;;;;;;5053262;28;20087;-59
2021/06/26 09:31:13;;;;;;;11.75;2.47;;;19.00;99.90;;;;;;5053287;28;20598;-59
2021/06/26 09:33:38;;;;;;;10.77;3.53;;;19.20;99.90;;;;;;5053830;28;20470;-59
2021/06/26 09:36:11;;;;;;;6.70;2.63;;;19.20;99.90;;;;;;5053629;28;20021;-59
2021/06/26 09:38:55;;;;;;;4.20;1.90;;;19.10;99.90;;;;;;5052952;28;20045;-59
2021/06/26 09:41:20;;;;;;;5.80;1.95;;;19.30;99.90;;;;;;5053115;28;20443;-59
2021/06/26 09:43:46;;;;;;;4.75;2.03;;;19.50;99.90;;;;;;5053114;28;20033;-59
2021/06/26 09:46:16;;;;;;;7.90;3.25;;;19.40;99.90;;;;;;5053019;28;20099;-59
2021/06/26 09:49:02;;;;;;;7.07;2.90;;;19.50;99.90;;;;;;5053125;28;20527;-59
2021/06/26 09:51:31;;;;;;;12.73;3.92;;;19.50;99.90;;;;;;5052810;28;20135;-59
2021/06/26 09:54:05;;;;;;;13.88;5.78;;;19.60;99.90;;;;;;5053043;28;20075;-59
2021/06/26 09:56:43;;;;;;;14.93;6.28;;;19.60;99.90;;;;;;5052791;28;20036;-59
2021/06/26 09:59:09;;;;;;;15.63;7.35;;;19.50;99.90;;;;;;5052814;28;20025;-59
2021/06/26 10:01:38;;;;;;;17.63;8.23;;;19.50;99.90;;;;;;5052586;28;20028;-59
2021/06/26 10:04:05;;;;;;;15.60;6.63;;;19.70;99.90;;;;;;5052829;28;20452;-59
2021/06/26 10:06:35;;;;;;;15.70;6.40;;;20.00;99.90;;;;;;5052848;28;20021;-59
2021/06/26 10:09:04;;;;;;;12.38;7.80;;;20.00;99.90;;;;;;5052713;28;20029;-59
2021/06/26 10:11:34;;;;;;;13.50;8.98;;;19.80;99.90;;;;;;5052675;28;20027;-60
2021/06/26 10:14:03;;;;;;;15.82;9.18;;;20.10;99.90;;;;;;5051815;28;20425;-59
2021/06/26 10:16:30;;;;;;;13.75;7.32;;;20.30;99.90;;;;;;5034551;28;20091;-59
2021/06/26 10:19:00;;;;;;;13.30;6.57;;;20.50;99.90;;;;;;5052460;28;20573;-59
2021/06/26 10:21:27;;;;;;;9.48;6.53;;;20.70;99.90;;;;;;5052518;28;20086;-59
2021/06/26 10:23:55;;;;;;;15.00;8.25;;;20.90;99.90;;;;;;5052814;28;20032;-59
2021/06/26 10:26:22;;;;;;;12.50;8.13;;;21.30;99.90;;;;;;5052339;28;20090;-57
2021/06/26 10:28:49;;;;;;;12.25;8.23;;;21.70;99.90;;;;;;5052282;28;20045;-57
2021/06/26 10:31:16;;;;;;;16.00;8.75;;;21.70;99.90;;;;;;5052140;28;20108;-57
2021/06/26 10:33:44;;;;;;;15.25;11.93;;;22.20;99.90;;;;;;5052278;28;20373;-57
2021/06/26 10:36:09;;;;;;;16.95;10.75;;;22.60;99.90;;;;;;5052810;28;20099;-57
2021/06/26 10:38:43;;;;;;;14.75;11.60;;;22.90;99.90;;;;;;5052094;28;20435;-57
2021/06/26 10:41:17;;;;;;;16.30;12.23;;;22.90;99.90;;;;;;5052029;28;20021;-57
2021/06/26 10:43:56;;;;;;;17.23;12.00;;;23.20;99.90;;;;;;5052030;28;20113;-57
2021/06/26 10:46:22;;;;;;;17.30;11.85;;;23.50;99.90;;;;;;5051935;28;20033;-57
2021/06/26 10:49:04;;;;;;;15.85;12.68;;;23.40;99.90;;;;;;5051814;28;20095;-59
2021/06/26 10:51:38;;;;;;;16.55;12.73;;;23.20;99.90;;;;;;5052041;28;20064;-59
2021/06/26 10:54:20;;;;;;;17.92;14.43;;;23.60;99.90;;;;;;5051856;28;20031;-59
2021/06/26 10:56:49;;;;;;;17.60;15.70;;;23.60;99.90;;;;;;5051643;28;20021;-59
2021/06/26 10:59:17;;;;;;;22.80;15.05;;;23.20;99.90;;;;;;5033614;28;20482;-58
2021/06/26 11:02:00;;;;;;;21.88;15.13;;;23.10;99.90;;;;;;5051621;28;20310;-59
2021/06/26 11:04:26;;;;;;;19.25;15.13;;;23.90;99.90;;;;;;5051598;28;20025;-59
2021/06/26 11:07:06;;;;;;;17.63;14.80;;;23.60;99.90;;;;;;5051439;28;20127;-58
2021/06/26 11:09:50;;;;;;;19.13;14.93;;;23.80;99.90;;;;;;5051499;28;20059;-58
2021/06/26 11:12:20;;;;;;;16.45;13.82;;;24.40;99.90;;;;;;5051544;28;20029;-59
2021/06/26 11:14:54;;;;;;;18.92;15.13;;;24.40;99.90;;;;;;5051348;28;20593;-58
2021/06/26 11:17:22;;;;;;;19.58;15.18;;;24.00;99.90;;;;;;5051262;28;20112;-59
2021/06/26 11:19:50;;;;;;;18.95;15.63;;;23.10;99.90;;;;;;5051195;28;20470;-58
2021/06/26 11:22:16;;;;;;;21.38;14.75;;;22.80;99.90;;;;;;5051212;28;20028;-58
2021/06/26 11:24:45;;;;;;;19.15;14.68;;;23.20;99.90;;;;;;5051174;28;20044;-58
2021/06/26 11:27:17;;;;;;;21.95;15.73;;;23.70;99.90;;;;;;5051168;28;20021;-58
2021/06/26 11:29:44;;;;;;;16.33;14.15;;;24.10;99.90;;;;;;5051178;28;20411;-58
2021/06/26 11:32:30;;;;;;;15.57;13.73;;;24.70;99.90;;;;;;5033371;28;20037;-58
2021/06/26 11:34:58;;;;;;;17.13;15.25;;;24.30;99.90;;;;;;5050651;28;20553;-58
2021/06/26 11:37:43;;;;;;;17.13;14.77;;;24.40;99.90;;;;;;5050966;28;20021;-58
2021/06/26 11:40:14;;;;;;;18.08;15.02;;;24.30;99.90;;;;;;5050876;28;20500;-58
2021/06/26 11:42:53;;;;;;;17.38;14.35;;;24.60;99.90;;;;;;5032872;28;20078;-58
2021/06/26 11:45:45;;;;;;;19.80;15.80;;;24.40;99.90;;;;;;5051061;28;20032;-58
2021/06/26 11:48:49;;;;;;;14.85;13.35;;;25.30;99.90;;;;;;5045921;28;20045;-58
2021/06/26 11:51:14;;;;;;;14.85;12.40;;;25.40;99.90;;;;;;5051843;28;20072;-56
2021/06/26 11:53:41;;;;;;;12.15;10.57;;;25.80;99.90;;;;;;5050824;28;20052;-56
2021/06/26 11:56:08;;;;;;;16.20;11.80;;;26.80;99.90;;;;;;5050642;28;20043;-56
2021/06/26 11:58:39;;;;;;;12.48;11.20;;;26.00;99.90;;;;;;5050600;28;20056;-56
2021/06/26 12:01:18;;;;;;;12.00;10.45;;;25.50;99.90;;;;;;5050607;28;20155;-56
2021/06/26 12:03:44;;;;;;;14.45;12.90;;;24.50;99.90;;;;;;5050698;28;20088;-55
2021/06/26 12:06:15;;;;;;;15.75;12.25;;;23.70;99.90;;;;;;5050608;28;20025;-55
2021/06/26 12:08:45;;;;;;;14.13;12.63;;;23.50;99.90;;;;;;5050603;28;20028;-55
2021/06/26 12:11:16;;;;;;;14.38;10.98;;;23.10;99.90;;;;;;5050541;28;20021;-55
2021/06/26 12:13:43;;;;;;;15.23;13.15;;;22.40;99.90;;;;;;5050548;28;20021;-55
2021/06/26 12:16:16;;;;;;;17.20;13.77;;;22.00;99.90;;;;;;5050485;28;20025;-55
2021/06/26 12:18:53;;;;;;;17.27;14.65;;;21.70;99.90;;;;;;5050549;28;20100;-55
2021/06/26 12:21:21;;;;;;;19.00;15.27;;;21.70;99.90;;;;;;5050360;28;20405;-55
2021/06/26 12:23:49;;;;;;;23.65;18.40;;;21.80;99.90;;;;;;5050518;28;20025;-55
2021/06/26 12:26:16;;;;;;;23.30;17.17;;;21.90;99.90;;;;;;5032807;28;20053;-55
2021/06/26 12:28:42;;;;;;;22.20;17.30;;;21.90;99.90;;;;;;5050429;28;20021;-55
2021/06/26 12:31:08;;;;;;;21.30;15.48;;;22.90;99.90;;;;;;5032443;28;20079;-55
2021/06/26 12:33:34;;;;;;;19.00;13.85;;;24.00;99.90;;;;;;5050474;28;20104;-56
2021/06/26 12:36:13;;;;;;;20.98;14.23;;;24.40;99.90;;;;;;5050331;28;20529;-56
2021/06/26 12:38:40;;;;;;;18.70;14.88;;;24.20;99.90;;;;;;5053918;28;20032;-55